sensor_id;sensor_type;location;lat;lon;timestamp;temperature;humidity
30150;DHT22;16962;48.646;9.026;2022-09-12T00:00:04;10.40;99.90
30150;DHT22;16962;48.646;9.026;2022-09-12T00:02:54;10.40;99.90
30150;DHT22;16962;48.646;9.026;2022-09-12T00:05:46;10.40;99.90
30150;DHT22;16962;48.646;9.026;2022-09-12T00:08:33;10.30;99.90
30150;DHT22;16962;48.646;9.026;2022-09-12T00:11:20;10.30;99.90
30150;DHT22;16962;48.646;9.026;2022-09-12T00:14:10;10.30;99.90
30150;DHT22;16962;48.646;9.026;2022-09-12T00:17:01;10.30;99.90
30150;DHT22;16962;48.646;9.026;2022-09-12T00:19:48;10.20;99.90
30150;DHT22;16962;48.646;9.026;2022-09-12T00:22:38;10.20;99.90
30150;DHT22;16962;48.646;9.026;2022-09-12T00:25:25;10.10;99.90
30150;DHT22;16962;48.646;9.026;2022-09-12T00:28:16;10.10;99.90
30150;DHT22;16962;48.646;9.026;2022-09-12T00:31:06;10.10;1.00
30150;DHT22;16962;48.646;9.026;2022-09-12T00:33:55;10.20;1.00
30150;DHT22;16962;48.646;9.026;2022-09-12T00:36:42;10.20;1.00
30150;DHT22;16962;48.646;9.026;2022-09-12T00:39:30;10.20;1.00
30150;DHT22;16962;48.646;9.026;2022-09-12T00:42:19;10.20;1.00
30150;DHT22;16962;48.646;9.026;2022-09-12T00:45:21;10.10;1.00
30150;DHT22;16962;48.646;9.026;2022-09-12T00:48:21;10.10;1.00
30150;DHT22;16962;48.646;9.026;2022-09-12T00:51:14;10.10;1.00
30150;DHT22;16962;48.646;9.026;2022-09-12T00:54:11;10.20;1.00
30150;DHT22;16962;48.646;9.026;2022-09-12T00:57:02;10.10;1.00
30150;DHT22;16962;48.646;9.026;2022-09-12T00:59:54;9.90;1.00
30150;DHT22;16962;48.646;9.026;2022-09-12T01:03:08;9.90;1.00
30150;DHT22;16962;48.646;9.026;2022-09-12T01:06:00;9.80;1.00
30150;DHT22;16962;48.646;9.026;2022-09-12T01:08:48;9.60;1.00
30150;DHT22;16962;48.646;9.026;2022-09-12T01:11:39;9.70;1.00
30150;DHT22;16962;48.646;9.026;2022-09-12T01:14:27;9.60;1.00
30150;DHT22;16962;48.646;9.026;2022-09-12T01:17:15;9.70;1.00
30150;DHT22;16962;48.646;9.026;2022-09-12T01:26:49;9.90;1.00
30150;DHT22;16962;48.646;9.026;2022-09-12T01:35:50;9.80;1.00
30150;DHT22;16962;48.646;9.026;2022-09-12T01:38:51;9.60;1.00
30150;DHT22;16962;48.646;9.026;2022-09-12T01:45:09;9.40;1.00
30150;DHT22;16962;48.646;9.026;2022-09-12T01:48:19;9.30;1.00
30150;DHT22;16962;48.646;9.026;2022-09-12T01:54:12;9.50;1.00
30150;DHT22;16962;48.646;9.026;2022-09-12T01:57:15;9.50;1.00
30150;DHT22;16962;48.646;9.026;2022-09-12T02:00:09;9.30;1.00
30150;DHT22;16962;48.646;9.026;2022-09-12T02:03:22;9.20;1.00
30150;DHT22;16962;48.646;9.026;2022-09-12T02:06:26;9.20;1.00
30150;DHT22;16962;48.646;9.026;2022-09-12T02:09:29;9.20;1.00
30150;DHT22;16962;48.646;9.026;2022-09-12T02:12:25;9.20;1.00
30150;DHT22;16962;48.646;9.026;2022-09-12T02:15:16;9.20;1.00
30150;DHT22;16962;48.646;9.026;2022-09-12T02:18:05;9.10;1.00
30150;DHT22;16962;48.646;9.026;2022-09-12T02:20:53;9.10;1.00
30150;DHT22;16962;48.646;9.026;2022-09-12T02:23:46;9.30;1.00
30150;DHT22;16962;48.646;9.026;2022-09-12T02:26:40;9.40;1.00
30150;DHT22;16962;48.646;9.026;2022-09-12T02:29:37;9.40;1.00
30150;DHT22;16962;48.646;9.026;2022-09-12T02:41:19;9.20;1.00
30150;DHT22;16962;48.646;9.026;2022-09-12T02:44:06;9.10;1.00
30150;DHT22;16962;48.646;9.026;2022-09-12T02:47:04;9.10;1.00
30150;DHT22;16962;48.646;9.026;2022-09-12T02:49:52;9.30;1.00
30150;DHT22;16962;48.646;9.026;2022-09-12T02:52:42;9.30;1.00
30150;DHT22;16962;48.646;9.026;2022-09-12T02:55:35;9.20;1.00
30150;DHT22;16962;48.646;9.026;2022-09-12T02:58:27;9.00;1.00
30150;DHT22;16962;48.646;9.026;2022-09-12T03:01:45;8.90;1.00
30150;DHT22;16962;48.646;9.026;2022-09-12T03:23:32;9.10;1.00
30150;DHT22;16962;48.646;9.026;2022-09-12T03:26:27;9.10;1.00
30150;DHT22;16962;48.646;9.026;2022-09-12T03:29:20;9.00;1.00
30150;DHT22;16962;48.646;9.026;2022-09-12T03:32:13;8.90;1.00
30150;DHT22;16962;48.646;9.026;2022-09-12T03:35:01;8.90;1.00
30150;DHT22;16962;48.646;9.026;2022-09-12T03:37:49;9.00;1.00
30150;DHT22;16962;48.646;9.026;2022-09-12T03:40:38;9.10;1.00
30150;DHT22;16962;48.646;9.026;2022-09-12T03:43:25;9.10;1.00
30150;DHT22;16962;48.646;9.026;2022-09-12T03:46:14;9.10;1.00
30150;DHT22;16962;48.646;9.026;2022-09-12T03:49:01;9.10;1.00
30150;DHT22;16962;48.646;9.026;2022-09-12T03:51:50;9.00;1.00
30150;DHT22;16962;48.646;9.026;2022-09-12T03:54:37;8.80;1.00
30150;DHT22;16962;48.646;9.026;2022-09-12T03:57:25;8.80;1.00
30150;DHT22;16962;48.646;9.026;2022-09-12T04:00:13;8.70;1.00
30150;DHT22;16962;48.646;9.026;2022-09-12T04:03:05;8.70;1.00
30150;DHT22;16962;48.646;9.026;2022-09-12T04:05:56;8.80;1.00
30150;DHT22;16962;48.646;9.026;2022-09-12T04:08:50;8.80;1.00
30150;DHT22;16962;48.646;9.026;2022-09-12T04:11:38;8.70;1.00
30150;DHT22;16962;48.646;9.026;2022-09-12T04:14:28;8.60;1.00
30150;DHT22;16962;48.646;9.026;2022-09-12T04:17:15;8.60;1.00
30150;DHT22;16962;48.646;9.026;2022-09-12T04:20:02;8.60;1.00
30150;DHT22;16962;48.646;9.026;2022-09-12T04:22:50;8.70;1.00
30150;DHT22;16962;48.646;9.026;2022-09-12T04:25:43;8.80;1.00
30150;DHT22;16962;48.646;9.026;2022-09-12T04:28:35;8.70;2.90
30150;DHT22;16962;48.646;9.026;2022-09-12T04:31:23;8.70;1.80
30150;DHT22;16962;48.646;9.026;2022-09-12T04:34:10;8.70;1.00
30150;DHT22;16962;48.646;9.026;2022-09-12T04:37:05;8.60;1.80
30150;DHT22;16962;48.646;9.026;2022-09-12T04:39:52;8.60;1.00
30150;DHT22;16962;48.646;9.026;2022-09-12T04:42:44;8.50;1.00
30150;DHT22;16962;48.646;9.026;2022-09-12T04:45:31;8.70;1.00
30150;DHT22;16962;48.646;9.026;2022-09-12T04:48:19;8.80;1.00
30150;DHT22;16962;48.646;9.026;2022-09-12T04:51:14;8.80;4.50
30150;DHT22;16962;48.646;9.026;2022-09-12T04:54:06;8.70;4.60
30150;DHT22;16962;48.646;9.026;2022-09-12T04:56:56;8.70;2.90
30150;DHT22;16962;48.646;9.026;2022-09-12T04:59:45;8.90;2.10
30150;DHT22;16962;48.646;9.026;2022-09-12T05:02:33;8.80;5.30
30150;DHT22;16962;48.646;9.026;2022-09-12T05:05:20;8.80;5.90
30150;DHT22;16962;48.646;9.026;2022-09-12T05:08:07;8.90;5.30
30150;DHT22;16962;48.646;9.026;2022-09-12T05:10:55;8.90;6.20
30150;DHT22;16962;48.646;9.026;2022-09-12T05:13:43;8.90;7.20
30150;DHT22;16962;48.646;9.026;2022-09-12T05:16:32;8.70;7.70
30150;DHT22;16962;48.646;9.026;2022-09-12T05:19:20;8.70;6.20
30150;DHT22;16962;48.646;9.026;2022-09-12T05:22:07;8.70;4.60
30150;DHT22;16962;48.646;9.026;2022-09-12T05:24:55;8.70;4.20
30150;DHT22;16962;48.646;9.026;2022-09-12T05:27:42;8.70;2.70
30150;DHT22;16962;48.646;9.026;2022-09-12T05:30:35;8.80;1.80
30150;DHT22;16962;48.646;9.026;2022-09-12T05:33:22;8.80;1.50
30150;DHT22;16962;48.646;9.026;2022-09-12T05:36:18;9.00;1.60
30150;DHT22;16962;48.646;9.026;2022-09-12T05:39:06;9.00;2.60
30150;DHT22;16962;48.646;9.026;2022-09-12T05:41:54;9.30;4.40
30150;DHT22;16962;48.646;9.026;2022-09-12T05:44:44;9.60;6.50
30150;DHT22;16962;48.646;9.026;2022-09-12T05:47:31;9.60;13.40
30150;DHT22;16962;48.646;9.026;2022-09-12T05:50:19;9.60;20.10
30150;DHT22;16962;48.646;9.026;2022-09-12T05:53:06;9.60;20.20
30150;DHT22;16962;48.646;9.026;2022-09-12T05:56:09;9.70;19.50
30150;DHT22;16962;48.646;9.026;2022-09-12T05:59:01;9.70;20.70
30150;DHT22;16962;48.646;9.026;2022-09-12T06:01:51;9.70;23.60
30150;DHT22;16962;48.646;9.026;2022-09-12T06:04:39;9.70;23.70
30150;DHT22;16962;48.646;9.026;2022-09-12T06:07:26;9.90;23.30
30150;DHT22;16962;48.646;9.026;2022-09-12T06:10:13;10.00;24.20
30150;DHT22;16962;48.646;9.026;2022-09-12T06:13:03;10.10;29.90
30150;DHT22;16962;48.646;9.026;2022-09-12T06:15:51;10.20;32.20
30150;DHT22;16962;48.646;9.026;2022-09-12T06:18:39;10.40;34.00
30150;DHT22;16962;48.646;9.026;2022-09-12T06:21:28;10.50;38.70
30150;DHT22;16962;48.646;9.026;2022-09-12T06:24:24;10.70;43.20
30150;DHT22;16962;48.646;9.026;2022-09-12T06:27:13;10.90;48.90
30150;DHT22;16962;48.646;9.026;2022-09-12T06:30:01;11.00;53.50
30150;DHT22;16962;48.646;9.026;2022-09-12T06:32:50;11.20;59.70
30150;DHT22;16962;48.646;9.026;2022-09-12T06:35:37;11.40;71.20
30150;DHT22;16962;48.646;9.026;2022-09-12T06:38:27;11.50;56.60
30150;DHT22;16962;48.646;9.026;2022-09-12T06:41:14;11.50;10.80
30150;DHT22;16962;48.646;9.026;2022-09-12T06:44:02;11.70;1.00
30150;DHT22;16962;48.646;9.026;2022-09-12T06:46:52;12.00;1.00
30150;DHT22;16962;48.646;9.026;2022-09-12T06:49:40;12.30;1.00
30150;DHT22;16962;48.646;9.026;2022-09-12T06:52:27;12.40;88.60
30150;DHT22;16962;48.646;9.026;2022-09-12T06:55:15;12.50;1.00
30150;DHT22;16962;48.646;9.026;2022-09-12T06:58:07;12.60;99.90
30150;DHT22;16962;48.646;9.026;2022-09-12T07:04:01;12.80;1.00
30150;DHT22;16962;48.646;9.026;2022-09-12T07:06:49;13.00;99.90
30150;DHT22;16962;48.646;9.026;2022-09-12T07:09:39;13.20;99.90
30150;DHT22;16962;48.646;9.026;2022-09-12T07:12:27;13.40;99.30
30150;DHT22;16962;48.646;9.026;2022-09-12T07:15:15;13.60;1.00
30150;DHT22;16962;48.646;9.026;2022-09-12T07:18:02;13.90;1.00
30150;DHT22;16962;48.646;9.026;2022-09-12T07:20:50;14.20;99.90
30150;DHT22;16962;48.646;9.026;2022-09-12T07:23:37;14.60;1.00
30150;DHT22;16962;48.646;9.026;2022-09-12T07:26:27;14.70;99.90
30150;DHT22;16962;48.646;9.026;2022-09-12T07:29:16;14.80;99.90
30150;DHT22;16962;48.646;9.026;2022-09-12T07:32:23;14.80;99.90
30150;DHT22;16962;48.646;9.026;2022-09-12T07:35:15;15.10;4.90
30150;DHT22;16962;48.646;9.026;2022-09-12T07:38:02;15.20;1.00
30150;DHT22;16962;48.646;9.026;2022-09-12T07:41:13;15.60;1.00
30150;DHT22;16962;48.646;9.026;2022-09-12T07:44:04;15.80;1.00
30150;DHT22;16962;48.646;9.026;2022-09-12T07:46:53;16.00;99.90
30150;DHT22;16962;48.646;9.026;2022-09-12T07:49:44;16.50;99.90
30150;DHT22;16962;48.646;9.026;2022-09-12T07:52:31;16.90;99.90
30150;DHT22;16962;48.646;9.026;2022-09-12T07:55:20;17.10;99.90
30150;DHT22;16962;48.646;9.026;2022-09-12T07:58:07;17.30;99.90
30150;DHT22;16962;48.646;9.026;2022-09-12T08:01:04;17.70;99.90
30150;DHT22;16962;48.646;9.026;2022-09-12T08:03:56;18.00;99.90
30150;DHT22;16962;48.646;9.026;2022-09-12T08:06:47;18.30;99.90
30150;DHT22;16962;48.646;9.026;2022-09-12T08:09:35;18.80;99.90
30150;DHT22;16962;48.646;9.026;2022-09-12T08:12:22;19.10;99.90
30150;DHT22;16962;48.646;9.026;2022-09-12T08:15:09;19.70;99.90
30150;DHT22;16962;48.646;9.026;2022-09-12T08:17:56;20.70;99.90
30150;DHT22;16962;48.646;9.026;2022-09-12T08:20:44;21.60;99.90
30150;DHT22;16962;48.646;9.026;2022-09-12T08:23:35;22.60;82.10
30150;DHT22;16962;48.646;9.026;2022-09-12T08:26:23;23.40;46.20
30150;DHT22;16962;48.646;9.026;2022-09-12T08:29:11;23.60;16.30
30150;DHT22;16962;48.646;9.026;2022-09-12T08:31:59;23.40;15.70
30150;DHT22;16962;48.646;9.026;2022-09-12T08:34:46;23.10;8.30
30150;DHT22;16962;48.646;9.026;2022-09-12T08:37:34;23.20;2.70
30150;DHT22;16962;48.646;9.026;2022-09-12T08:40:23;23.60;2.60
30150;DHT22;16962;48.646;9.026;2022-09-12T08:44:00;24.30;1.00
30150;DHT22;16962;48.646;9.026;2022-09-12T08:46:26;24.60;1.00
30150;DHT22;16962;48.646;9.026;2022-09-12T08:49:32;25.30;1.00
30150;DHT22;16962;48.646;9.026;2022-09-12T08:55:45;25.20;1.00
30150;DHT22;16962;48.646;9.026;2022-09-12T08:58:41;25.00;1.00
30150;DHT22;16962;48.646;9.026;2022-09-12T09:01:36;25.80;1.00
30150;DHT22;16962;48.646;9.026;2022-09-12T09:04:51;26.40;1.00
30150;DHT22;16962;48.646;9.026;2022-09-12T09:13:56;26.30;1.00
30150;DHT22;16962;48.646;9.026;2022-09-12T09:17:10;26.70;1.00
30150;DHT22;16962;48.646;9.026;2022-09-12T09:22:49;26.50;1.00
30150;DHT22;16962;48.646;9.026;2022-09-12T09:29:03;26.80;1.00
30150;DHT22;16962;48.646;9.026;2022-09-12T09:31:57;26.90;1.00
30150;DHT22;16962;48.646;9.026;2022-09-12T09:34:45;26.60;1.00
30150;DHT22;16962;48.646;9.026;2022-09-12T09:37:54;27.10;1.00
30150;DHT22;16962;48.646;9.026;2022-09-12T09:43:39;28.20;1.00
30150;DHT22;16962;48.646;9.026;2022-09-12T09:46:26;28.30;1.00
30150;DHT22;16962;48.646;9.026;2022-09-12T09:49:15;26.70;1.00
30150;DHT22;16962;48.646;9.026;2022-09-12T09:52:06;26.50;1.00
30150;DHT22;16962;48.646;9.026;2022-09-12T09:54:59;27.00;1.00
30150;DHT22;16962;48.646;9.026;2022-09-12T09:57:47;27.70;1.00
30150;DHT22;16962;48.646;9.026;2022-09-12T10:00:36;28.70;1.00
30150;DHT22;16962;48.646;9.026;2022-09-12T10:03:37;29.00;1.00
30150;DHT22;16962;48.646;9.026;2022-09-12T10:06:29;29.00;1.00
30150;DHT22;16962;48.646;9.026;2022-09-12T10:09:25;29.60;1.00
30150;DHT22;16962;48.646;9.026;2022-09-12T10:12:27;29.90;1.00
30150;DHT22;16962;48.646;9.026;2022-09-12T10:15:21;30.30;1.00
30150;DHT22;16962;48.646;9.026;2022-09-12T10:18:09;29.60;1.00
30150;DHT22;16962;48.646;9.026;2022-09-12T10:20:56;28.30;1.00
30150;DHT22;16962;48.646;9.026;2022-09-12T10:23:52;27.20;1.00
30150;DHT22;16962;48.646;9.026;2022-09-12T10:26:52;27.20;1.00
30150;DHT22;16962;48.646;9.026;2022-09-12T10:29:43;28.50;1.00
30150;DHT22;16962;48.646;9.026;2022-09-12T10:32:42;29.70;1.00
30150;DHT22;16962;48.646;9.026;2022-09-12T10:35:42;30.70;1.00
30150;DHT22;16962;48.646;9.026;2022-09-12T10:38:31;30.70;1.00
30150;DHT22;16962;48.646;9.026;2022-09-12T10:41:22;30.80;1.00
30150;DHT22;16962;48.646;9.026;2022-09-12T10:44:22;30.40;1.00
30150;DHT22;16962;48.646;9.026;2022-09-12T10:47:20;28.90;1.00
30150;DHT22;16962;48.646;9.026;2022-09-12T10:56:09;30.30;1.00
30150;DHT22;16962;48.646;9.026;2022-09-12T11:11:39;29.50;1.00
30150;DHT22;16962;48.646;9.026;2022-09-12T11:14:55;30.10;1.00
30150;DHT22;16962;48.646;9.026;2022-09-12T11:21:18;30.40;1.00
30150;DHT22;16962;48.646;9.026;2022-09-12T11:27:20;30.70;1.00
30150;DHT22;16962;48.646;9.026;2022-09-12T11:30:12;31.70;1.00
30150;DHT22;16962;48.646;9.026;2022-09-12T11:36:06;30.30;1.00
30150;DHT22;16962;48.646;9.026;2022-09-12T11:39:01;30.70;1.00
30150;DHT22;16962;48.646;9.026;2022-09-12T11:41:59;30.10;1.00
30150;DHT22;16962;48.646;9.026;2022-09-12T11:45:18;28.70;1.00
30150;DHT22;16962;48.646;9.026;2022-09-12T11:48:09;29.00;1.00
30150;DHT22;16962;48.646;9.026;2022-09-12T11:50:59;30.10;1.00
30150;DHT22;16962;48.646;9.026;2022-09-12T11:54:05;30.10;1.00
30150;DHT22;16962;48.646;9.026;2022-09-12T11:57:24;30.90;1.00
30150;DHT22;16962;48.646;9.026;2022-09-12T12:06:32;31.60;1.00
30150;DHT22;16962;48.646;9.026;2022-09-12T12:09:25;30.90;1.00
30150;DHT22;16962;48.646;9.026;2022-09-12T12:12:17;30.90;1.00
30150;DHT22;16962;48.646;9.026;2022-09-12T12:15:13;30.70;1.00
30150;DHT22;16962;48.646;9.026;2022-09-12T12:18:17;31.00;1.00
30150;DHT22;16962;48.646;9.026;2022-09-12T12:24:26;32.50;1.00
30150;DHT22;16962;48.646;9.026;2022-09-12T12:28:10;30.60;1.00
30150;DHT22;16962;48.646;9.026;2022-09-12T12:48:15;31.90;1.00
30150;DHT22;16962;48.646;9.026;2022-09-12T13:03:27;34.80;1.00
30150;DHT22;16962;48.646;9.026;2022-09-12T13:06:41;34.00;1.00
30150;DHT22;16962;48.646;9.026;2022-09-12T13:09:38;32.90;1.00
30150;DHT22;16962;48.646;9.026;2022-09-12T13:12:49;32.10;1.00
30150;DHT22;16962;48.646;9.026;2022-09-12T13:18:38;32.50;1.00
30150;DHT22;16962;48.646;9.026;2022-09-12T13:21:27;33.40;1.00
30150;DHT22;16962;48.646;9.026;2022-09-12T13:24:15;33.70;1.00
30150;DHT22;16962;48.646;9.026;2022-09-12T13:27:21;34.60;1.00
30150;DHT22;16962;48.646;9.026;2022-09-12T13:30:14;35.40;1.00
30150;DHT22;16962;48.646;9.026;2022-09-12T13:33:24;36.60;1.00
30150;DHT22;16962;48.646;9.026;2022-09-12T13:43:06;33.90;1.00
30150;DHT22;16962;48.646;9.026;2022-09-12T13:45:57;34.00;1.00
30150;DHT22;16962;48.646;9.026;2022-09-12T13:48:48;34.20;1.00
30150;DHT22;16962;48.646;9.026;2022-09-12T13:51:35;34.40;1.00
30150;DHT22;16962;48.646;9.026;2022-09-12T13:54:23;34.60;1.00
30150;DHT22;16962;48.646;9.026;2022-09-12T13:57:33;33.80;1.00
30150;DHT22;16962;48.646;9.026;2022-09-12T14:00:24;32.70;1.00
30150;DHT22;16962;48.646;9.026;2022-09-12T14:03:38;33.20;1.00
30150;DHT22;16962;48.646;9.026;2022-09-12T14:06:50;34.40;1.00
30150;DHT22;16962;48.646;9.026;2022-09-12T14:09:52;34.80;1.00
30150;DHT22;16962;48.646;9.026;2022-09-12T14:12:42;34.10;1.00
30150;DHT22;16962;48.646;9.026;2022-09-12T14:15:56;34.60;1.00
30150;DHT22;16962;48.646;9.026;2022-09-12T14:18:46;34.60;1.00
30150;DHT22;16962;48.646;9.026;2022-09-12T14:21:35;34.60;1.00
30150;DHT22;16962;48.646;9.026;2022-09-12T14:24:26;33.90;1.00
30150;DHT22;16962;48.646;9.026;2022-09-12T14:27:23;33.90;1.00
30150;DHT22;16962;48.646;9.026;2022-09-12T14:30:41;33.60;1.00
30150;DHT22;16962;48.646;9.026;2022-09-12T14:36:55;33.00;1.00
30150;DHT22;16962;48.646;9.026;2022-09-12T14:39:47;32.00;1.00
30150;DHT22;16962;48.646;9.026;2022-09-12T14:42:34;32.70;1.00
30150;DHT22;16962;48.646;9.026;2022-09-12T14:45:28;32.90;1.00
30150;DHT22;16962;48.646;9.026;2022-09-12T14:48:17;33.00;1.00
30150;DHT22;16962;48.646;9.026;2022-09-12T14:51:24;33.90;1.00
30150;DHT22;16962;48.646;9.026;2022-09-12T15:00:29;32.30;1.00
30150;DHT22;16962;48.646;9.026;2022-09-12T15:03:25;31.50;1.00
30150;DHT22;16962;48.646;9.026;2022-09-12T15:06:33;32.20;1.00
30150;DHT22;16962;48.646;9.026;2022-09-12T15:09:22;33.20;1.00
30150;DHT22;16962;48.646;9.026;2022-09-12T15:12:12;33.80;1.00
30150;DHT22;16962;48.646;9.026;2022-09-12T15:15:12;34.20;1.00
30150;DHT22;16962;48.646;9.026;2022-09-12T15:18:05;34.00;1.00
30150;DHT22;16962;48.646;9.026;2022-09-12T15:21:00;34.40;1.00
30150;DHT22;16962;48.646;9.026;2022-09-12T15:23:50;33.70;1.00
30150;DHT22;16962;48.646;9.026;2022-09-12T15:26:37;33.70;1.00
30150;DHT22;16962;48.646;9.026;2022-09-12T15:29:25;33.30;1.00
30150;DHT22;16962;48.646;9.026;2022-09-12T15:32:23;31.60;1.00
30150;DHT22;16962;48.646;9.026;2022-09-12T15:35:27;31.20;1.00
30150;DHT22;16962;48.646;9.026;2022-09-12T15:38:17;30.90;1.00
30150;DHT22;16962;48.646;9.026;2022-09-12T15:41:30;31.40;1.00
30150;DHT22;16962;48.646;9.026;2022-09-12T15:44:17;31.90;1.00
30150;DHT22;16962;48.646;9.026;2022-09-12T15:47:09;31.60;1.00
30150;DHT22;16962;48.646;9.026;2022-09-12T15:49:57;30.70;1.00
30150;DHT22;16962;48.646;9.026;2022-09-12T15:52:45;31.20;1.00
30150;DHT22;16962;48.646;9.026;2022-09-12T15:55:35;30.30;1.00
30150;DHT22;16962;48.646;9.026;2022-09-12T15:58:25;30.10;1.00
30150;DHT22;16962;48.646;9.026;2022-09-12T16:01:16;30.40;1.00
30150;DHT22;16962;48.646;9.026;2022-09-12T16:04:21;31.00;1.00
30150;DHT22;16962;48.646;9.026;2022-09-12T16:07:11;30.50;1.00
30150;DHT22;16962;48.646;9.026;2022-09-12T16:09:58;29.70;1.00
30150;DHT22;16962;48.646;9.026;2022-09-12T16:12:46;29.60;1.00
30150;DHT22;16962;48.646;9.026;2022-09-12T16:15:33;29.80;1.00
30150;DHT22;16962;48.646;9.026;2022-09-12T16:18:22;29.00;1.00
30150;DHT22;16962;48.646;9.026;2022-09-12T16:21:10;29.00;1.00
30150;DHT22;16962;48.646;9.026;2022-09-12T16:24:01;28.60;1.00
30150;DHT22;16962;48.646;9.026;2022-09-12T16:26:50;28.20;1.00
30150;DHT22;16962;48.646;9.026;2022-09-12T16:29:37;26.90;1.00
30150;DHT22;16962;48.646;9.026;2022-09-12T16:32:24;25.60;1.00
30150;DHT22;16962;48.646;9.026;2022-09-12T16:35:12;24.70;1.00
30150;DHT22;16962;48.646;9.026;2022-09-12T16:37:59;24.00;1.00
30150;DHT22;16962;48.646;9.026;2022-09-12T16:40:47;23.50;1.00
30150;DHT22;16962;48.646;9.026;2022-09-12T16:43:34;23.10;1.00
30150;DHT22;16962;48.646;9.026;2022-09-12T16:46:25;22.80;1.00
30150;DHT22;16962;48.646;9.026;2022-09-12T16:49:14;22.60;1.00
30150;DHT22;16962;48.646;9.026;2022-09-12T16:52:05;22.40;1.00
30150;DHT22;16962;48.646;9.026;2022-09-12T16:54:53;22.20;1.00
30150;DHT22;16962;48.646;9.026;2022-09-12T16:57:43;22.00;1.00
30150;DHT22;16962;48.646;9.026;2022-09-12T17:00:33;21.90;1.00
30150;DHT22;16962;48.646;9.026;2022-09-12T17:03:20;21.80;1.00
30150;DHT22;16962;48.646;9.026;2022-09-12T17:06:15;21.70;1.00
30150;DHT22;16962;48.646;9.026;2022-09-12T17:09:03;21.50;1.00
30150;DHT22;16962;48.646;9.026;2022-09-12T17:11:50;21.40;1.00
30150;DHT22;16962;48.646;9.026;2022-09-12T17:14:39;21.20;1.00
30150;DHT22;16962;48.646;9.026;2022-09-12T17:17:27;21.00;1.00
30150;DHT22;16962;48.646;9.026;2022-09-12T17:20:14;20.80;1.00
30150;DHT22;16962;48.646;9.026;2022-09-12T17:23:01;20.70;1.00
30150;DHT22;16962;48.646;9.026;2022-09-12T17:25:55;20.50;1.00
30150;DHT22;16962;48.646;9.026;2022-09-12T17:28:44;20.30;1.00
30150;DHT22;16962;48.646;9.026;2022-09-12T17:31:31;20.20;1.00
30150;DHT22;16962;48.646;9.026;2022-09-12T17:34:21;20.10;1.00
30150;DHT22;16962;48.646;9.026;2022-09-12T17:37:09;19.90;1.00
30150;DHT22;16962;48.646;9.026;2022-09-12T17:39:57;19.70;1.00
30150;DHT22;16962;48.646;9.026;2022-09-12T17:42:44;19.60;1.00
30150;DHT22;16962;48.646;9.026;2022-09-12T17:45:34;19.40;1.00
30150;DHT22;16962;48.646;9.026;2022-09-12T17:48:21;19.20;1.00
30150;DHT22;16962;48.646;9.026;2022-09-12T17:51:13;19.10;1.00
30150;DHT22;16962;48.646;9.026;2022-09-12T17:54:12;18.90;1.00
30150;DHT22;16962;48.646;9.026;2022-09-12T17:57:02;18.70;1.00
30150;DHT22;16962;48.646;9.026;2022-09-12T17:59:51;18.50;1.00
30150;DHT22;16962;48.646;9.026;2022-09-12T18:02:38;18.40;1.00
30150;DHT22;16962;48.646;9.026;2022-09-12T18:05:26;18.30;1.00
30150;DHT22;16962;48.646;9.026;2022-09-12T18:08:13;18.30;1.00
30150;DHT22;16962;48.646;9.026;2022-09-12T18:11:05;18.20;1.00
30150;DHT22;16962;48.646;9.026;2022-09-12T18:13:57;18.20;1.00
30150;DHT22;16962;48.646;9.026;2022-09-12T18:16:46;18.10;1.00
30150;DHT22;16962;48.646;9.026;2022-09-12T18:19:34;18.10;1.00
30150;DHT22;16962;48.646;9.026;2022-09-12T18:22:22;18.00;1.00
30150;DHT22;16962;48.646;9.026;2022-09-12T18:25:17;17.90;1.00
30150;DHT22;16962;48.646;9.026;2022-09-12T18:28:04;17.80;1.00
30150;DHT22;16962;48.646;9.026;2022-09-12T18:30:55;17.80;1.00
30150;DHT22;16962;48.646;9.026;2022-09-12T18:33:43;17.80;1.00
30150;DHT22;16962;48.646;9.026;2022-09-12T18:36:32;17.70;1.00
30150;DHT22;16962;48.646;9.026;2022-09-12T18:39:20;17.60;1.00
30150;DHT22;16962;48.646;9.026;2022-09-12T18:42:13;17.50;1.00
30150;DHT22;16962;48.646;9.026;2022-09-12T18:45:00;17.40;1.00
30150;DHT22;16962;48.646;9.026;2022-09-12T18:47:47;17.30;1.00
30150;DHT22;16962;48.646;9.026;2022-09-12T18:50:39;17.20;1.00
30150;DHT22;16962;48.646;9.026;2022-09-12T18:53:29;17.20;1.00
30150;DHT22;16962;48.646;9.026;2022-09-12T18:56:19;17.20;1.00
30150;DHT22;16962;48.646;9.026;2022-09-12T18:59:09;17.20;1.00
30150;DHT22;16962;48.646;9.026;2022-09-12T19:01:58;17.10;1.00
30150;DHT22;16962;48.646;9.026;2022-09-12T19:04:47;17.00;1.00
30150;DHT22;16962;48.646;9.026;2022-09-12T19:07:35;16.90;1.00
30150;DHT22;16962;48.646;9.026;2022-09-12T19:10:23;16.70;1.00
30150;DHT22;16962;48.646;9.026;2022-09-12T19:13:11;16.50;1.00
30150;DHT22;16962;48.646;9.026;2022-09-12T19:16:03;16.30;1.00
30150;DHT22;16962;48.646;9.026;2022-09-12T19:18:54;16.20;1.00
30150;DHT22;16962;48.646;9.026;2022-09-12T19:21:43;16.10;1.00
30150;DHT22;16962;48.646;9.026;2022-09-12T19:24:31;16.00;1.00
30150;DHT22;16962;48.646;9.026;2022-09-12T19:27:19;16.00;1.00
30150;DHT22;16962;48.646;9.026;2022-09-12T19:30:06;16.00;1.00
30150;DHT22;16962;48.646;9.026;2022-09-12T19:32:54;16.00;1.00
30150;DHT22;16962;48.646;9.026;2022-09-12T19:35:41;16.00;1.00
30150;DHT22;16962;48.646;9.026;2022-09-12T19:38:29;16.00;1.00
30150;DHT22;16962;48.646;9.026;2022-09-12T19:41:16;15.90;1.00
30150;DHT22;16962;48.646;9.026;2022-09-12T19:44:05;15.70;1.00
30150;DHT22;16962;48.646;9.026;2022-09-12T19:46:55;15.50;9.70
30150;DHT22;16962;48.646;9.026;2022-09-12T19:49:43;15.50;12.10
30150;DHT22;16962;48.646;9.026;2022-09-12T19:52:30;15.30;25.30
30150;DHT22;16962;48.646;9.026;2022-09-12T19:55:18;15.20;42.80
30150;DHT22;16962;48.646;9.026;2022-09-12T19:58:05;15.10;60.70
30150;DHT22;16962;48.646;9.026;2022-09-12T20:00:56;15.00;83.70
30150;DHT22;16962;48.646;9.026;2022-09-12T20:03:53;15.00;99.90
30150;DHT22;16962;48.646;9.026;2022-09-12T20:06:41;15.00;99.90
30150;DHT22;16962;48.646;9.026;2022-09-12T20:09:28;14.90;99.90
30150;DHT22;16962;48.646;9.026;2022-09-12T20:12:21;14.80;99.90
30150;DHT22;16962;48.646;9.026;2022-09-12T20:15:11;14.70;99.90
30150;DHT22;16962;48.646;9.026;2022-09-12T20:17:58;14.60;99.90
30150;DHT22;16962;48.646;9.026;2022-09-12T20:20:46;14.50;99.90
30150;DHT22;16962;48.646;9.026;2022-09-12T20:23:33;14.40;99.90
30150;DHT22;16962;48.646;9.026;2022-09-12T20:26:21;14.40;99.90
30150;DHT22;16962;48.646;9.026;2022-09-12T20:29:10;14.30;99.90
30150;DHT22;16962;48.646;9.026;2022-09-12T20:31:58;14.30;99.90
30150;DHT22;16962;48.646;9.026;2022-09-12T20:34:49;14.30;99.90
30150;DHT22;16962;48.646;9.026;2022-09-12T20:37:36;14.30;99.90
30150;DHT22;16962;48.646;9.026;2022-09-12T20:40:25;14.40;99.90
30150;DHT22;16962;48.646;9.026;2022-09-12T20:43:15;14.50;99.90
30150;DHT22;16962;48.646;9.026;2022-09-12T20:46:07;14.40;99.90
30150;DHT22;16962;48.646;9.026;2022-09-12T20:48:56;14.40;99.90
30150;DHT22;16962;48.646;9.026;2022-09-12T20:51:51;14.30;99.90
30150;DHT22;16962;48.646;9.026;2022-09-12T20:54:40;14.30;99.90
30150;DHT22;16962;48.646;9.026;2022-09-12T20:57:29;14.40;99.90
30150;DHT22;16962;48.646;9.026;2022-09-12T21:00:19;14.60;99.90